Cary Plt, Maine
Current Conditions -  °F | °C
As of 1:08 PM on Wednesday 28 Jan 2015 (Local Time) from KHUL Reporting Station
Light Snow Light Snow  
Wind Chill:   Ceiling: 2000
Heat Index: 13°   Visibility: 1.2mi
Dew Point:   Wind: 10mph
Humidity: 77%   Direction: 350°N
Pressure: 29.84"   Gusts: 20mph
Location:  45.8952°N, 67.8479°W
Report Text: KHUL 281808Z AUTO 35009G17KT 1 1/4SM -SN FEW016 BKN020 OVC032 M11/M14 A2984 RMK AO2 P0000 T11061139
Loading
Personal Weather Stations






























Interactive Weather Map New forecast layout! Learn more

10-Day Weather Forecast

Advertisements
Track Severe Weather on mobile